الصفحة الرئيسية
METAR-TAF:

METAR-TAF

مطار :

مطار غوستافو روجاس بينيلا الدولي

San Andrés, كولومبيا

دائرة عرض: 12-35N, خط طول: 081-43W, ارتفاع: 1 متر

مراقبة الطقس الحالي

تاريخ ووقت الإصدار 29 دقيقة قبل الساعة 02:00UTC
ريح 4 عقدة من الشرق, الاتجاه يتراوح بين الشمال الشرقي و الجنوب الشرقي
درجة الحرارة 28°درجة مئوية
الرطوبة 84%
ضغط 1011 hPa
الرؤية 10 كم أو أكثر
غيوم قليلة على ارتفاع 1400 قدم
غيوم مفككة على ارتفاع 20000 قدم

METAR: SKSP 260200Z 09004KT 040V130 9999 FEW014 BKN200 28/25 A2984

زمن: 21:29 (02:29 UTC)

توقعات

تاريخ ووقت الإصدار 3ساعات و 29 دقيقة قبل الساعة 23:00UTC
التوقعات صالحة من26 الساعة 00 UTC إلى 26 الساعة 24 UTC
ريح 10 عقدة من الشرق
الرؤية 10 كم أو أكثر
غيوم متفرقة على ارتفاع 1700 قدم
غيوم متفرقة على ارتفاع 8000 قدم
مؤقت
من 26 الساعة 04 UTC إلى 26 الساعة 08 UTC
الرؤية: 7000 متر
غيوم متفرقة على ارتفاع 1700 قدم, مزن ركامية عمودية.
رذاذ, مطر

TAF: SKSP 252300Z 2600/2624 09010KT 9999 SCT017 SCT080 TEMPO 2604/2608 7000 DZRA SCT017TCU TX31/2619Z TN26/2611Z

أرصاد الطقس والتوقعات من أكثر من 4000 مطار (تقارير الطقس للمطار METAR والتنبؤ بالطقس بالمطارTAF).

المحطات المتاحة هي النقط الصفراء والحمراء على الخريطة.

حرك المؤشر فوق النقطة لمعرفة اسم المحطة.

ثم انقر لمعرفة أرصاد وتوقعات الطقس.

لتغيير الخارطة: اضغط على الأزرار الخضراء مع رمز الصليب الأسود للتكبير. على الزر الأخضر مع شرطة للتصغير، أو على الأسهم الخضراء للخرائط المجاورة.


METAR-TAF: